Terminal Aerodrome Forecast
Issued by NWS Wilmington, OH

Current Version | Previous Version | Text Only | Print | Product List | Glossary Off
Versions: 1 2 3 4 5 6 7 8 9 10 11 12 13 14 15 16 17 18 19 20 21 22 23 24 25 26 27

000
FTUS41 KILN 281816 AAA
TAFILN
TAF AMD
KILN 281816Z 2818/2918 10003KT P6SM VCTS SCT025CB BKN035
      TEMPO 2818/2820 BKN025CB
     FM282200 09004KT P6SM SCT025 BKN035
     FM290600 00000KT 3SM BR FEW035
     FM290900 00000KT 1/2SM FG FEW250
     FM291300 25005KT P6SM SCT025 BKN250=

USA.gov is the U.S. government's official web portal to all federal, state and local government web resources and services.